Time;durP1;ratioP1;P1;durP2;ratioP2;P2;SDS_P1;SDS_P2;PMS_P1;PMS_P2;Temp;Humidity;BMP_temperature;BMP_pressure;BME280_temperature;BME280_humidity;BME280_pressure;Samples;Min_cycle;Max_cycle;Signal;HPM_P1;HPM_P2
2021/12/03 00:01:08;;;;;;;7.28;2.90;;;4.70;99.90;;;;;;5060877;28;20864;-72
2021/12/03 00:03:35;;;;;;;6.15;3.08;;;4.70;99.90;;;;;;5058537;28;20419;-71
2021/12/03 00:06:00;;;;;;;12.53;3.90;;;4.70;99.90;;;;;;5063572;28;20847;-71
2021/12/03 00:08:26;;;;;;;7.75;3.50;;;4.70;99.90;;;;;;5061849;28;20411;-72
2021/12/03 00:10:58;;;;;;;7.72;3.35;;;4.70;99.90;;;;;;5062969;28;20419;-73
2021/12/03 00:13:25;;;;;;;7.60;3.22;;;4.60;99.90;;;;;;5060878;28;20859;-71
2021/12/03 00:15:52;;;;;;;8.50;3.58;;;4.60;99.90;;;;;;5063941;28;20546;-71
2021/12/03 00:18:18;;;;;;;8.15;3.90;;;4.60;99.90;;;;;;5053302;28;20422;-71
2021/12/03 00:20:43;;;;;;;9.35;4.40;;;4.60;99.90;;;;;;5042791;28;20620;-73
2021/12/03 00:23:11;;;;;;;9.67;4.57;;;4.60;99.90;;;;;;5058415;28;20542;-70
2021/12/03 00:25:38;;;;;;;9.82;4.70;;;4.50;99.90;;;;;;5045314;28;20411;-69
2021/12/03 00:28:05;;;;;;;12.07;5.55;;;4.50;99.90;;;;;;5058752;28;20407;-68
2021/12/03 00:30:32;;;;;;;12.35;5.55;;;4.50;99.90;;;;;;5080919;28;21258;-71
2021/12/03 00:32:58;;;;;;;13.70;5.20;;;4.50;99.90;;;;;;5061301;28;20415;-71
2021/12/03 00:35:24;;;;;;;16.40;5.63;;;4.50;99.90;;;;;;5064719;28;20434;-69
2021/12/03 00:37:50;;;;;;;15.07;5.40;;;4.40;99.90;;;;;;5059371;28;20423;-69
2021/12/03 00:40:31;;;;;;;9.85;5.53;;;4.40;99.90;;;;;;5072770;28;20965;-71
2021/12/03 00:42:58;;;;;;;12.73;5.90;;;4.40;99.90;;;;;;5063313;28;20838;-68
2021/12/03 00:45:24;;;;;;;14.68;6.00;;;4.40;99.90;;;;;;5066273;28;20411;-70
2021/12/03 00:47:50;;;;;;;12.30;5.68;;;4.40;99.90;;;;;;5065163;28;20399;-70
2021/12/03 00:50:19;;;;;;;13.40;5.87;;;4.40;99.90;;;;;;5067023;28;20419;-70
2021/12/03 00:52:45;;;;;;;15.43;6.13;;;4.40;99.90;;;;;;5064347;28;20419;-72
2021/12/03 00:55:11;;;;;;;15.57;6.07;;;4.40;99.90;;;;;;5065696;28;20411;-71
2021/12/03 00:57:37;;;;;;;15.27;5.88;;;4.40;99.90;;;;;;5064031;28;20504;-69
2021/12/03 01:00:07;;;;;;;12.80;5.20;;;4.40;99.90;;;;;;5065904;28;20533;-71
2021/12/03 01:02:33;;;;;;;14.13;5.00;;;4.50;99.90;;;;;;5064975;28;20410;-69
2021/12/03 01:04:58;;;;;;;13.03;5.03;;;4.50;99.90;;;;;;5065642;28;20530;-70
2021/12/03 01:07:24;;;;;;;10.80;4.90;;;4.50;99.90;;;;;;5064855;28;20416;-71
2021/12/03 01:09:50;;;;;;;11.67;4.67;;;4.60;99.90;;;;;;5066309;28;20489;-69
2021/12/03 01:12:16;;;;;;;9.38;4.32;;;4.60;99.90;;;;;;5063757;28;20427;-70
2021/12/03 01:14:42;;;;;;;10.03;4.30;;;4.60;99.90;;;;;;5064606;28;20441;-69
2021/12/03 01:17:08;;;;;;;11.40;4.50;;;4.60;99.90;;;;;;5064405;28;20438;-70
2021/12/03 01:19:34;;;;;;;12.18;4.22;;;4.60;99.90;;;;;;5063415;28;20427;-69
2021/12/03 01:22:01;;;;;;;11.38;4.43;;;4.60;99.90;;;;;;5061977;28;20412;-69
2021/12/03 01:24:26;;;;;;;12.00;4.32;;;4.60;99.90;;;;;;5066399;28;20462;-69
2021/12/03 01:26:54;;;;;;;17.45;4.50;;;4.60;99.90;;;;;;5063936;28;20415;-69
2021/12/03 01:29:21;;;;;;;12.35;4.35;;;4.60;99.90;;;;;;5065215;28;20434;-71
2021/12/03 01:31:47;;;;;;;12.23;4.35;;;4.60;99.90;;;;;;5072951;28;20811;-68
2021/12/03 01:34:15;;;;;;;11.88;4.20;;;4.70;99.90;;;;;;5066091;28;20447;-70
2021/12/03 01:36:40;;;;;;;9.63;3.80;;;4.70;99.90;;;;;;5064256;28;20438;-70
2021/12/03 01:39:07;;;;;;;13.30;4.22;;;4.70;99.90;;;;;;5065759;28;20800;-68
2021/12/03 01:41:35;;;;;;;10.45;4.05;;;4.70;99.90;;;;;;5062633;28;22366;-70
2021/12/03 01:44:02;;;;;;;16.08;4.05;;;4.70;99.90;;;;;;5064468;28;20419;-70
2021/12/03 01:46:30;;;;;;;17.73;4.50;;;4.70;99.90;;;;;;5062947;28;20423;-71
2021/12/03 01:48:56;;;;;;;12.23;4.55;;;4.70;99.90;;;;;;5066117;28;20422;-71
2021/12/03 01:51:23;;;;;;;14.40;4.50;;;4.80;99.90;;;;;;5064441;28;20955;-71
2021/12/03 01:53:49;;;;;;;14.80;4.20;;;4.70;99.90;;;;;;5062639;28;20412;-68
2021/12/03 01:56:16;;;;;;;14.95;4.80;;;4.70;99.90;;;;;;5064493;28;20468;-70
2021/12/03 01:58:44;;;;;;;17.85;5.00;;;4.70;99.90;;;;;;5065010;28;20414;-70
2021/12/03 02:01:12;;;;;;;16.60;4.57;;;4.70;99.90;;;;;;5065862;28;20419;-70
2021/12/03 02:03:41;;;;;;;14.52;4.40;;;4.70;99.90;;;;;;5079460;28;20429;-69
2021/12/03 02:06:09;;;;;;;14.53;4.30;;;4.70;99.90;;;;;;5065987;28;20407;-72
2021/12/03 02:08:36;;;;;;;13.75;4.90;;;4.70;99.90;;;;;;5064505;28;20431;-70
2021/12/03 02:11:03;;;;;;;16.85;5.13;;;4.70;99.90;;;;;;5065966;28;20427;-71
2021/12/03 02:13:30;;;;;;;20.17;4.95;;;4.70;99.90;;;;;;5065221;28;20415;-70
2021/12/03 02:15:56;;;;;;;12.38;4.97;;;4.70;99.90;;;;;;5064473;28;20392;-69
2021/12/03 02:18:22;;;;;;;15.30;4.90;;;4.70;99.90;;;;;;5067721;28;20419;-71
2021/12/03 02:20:55;;;;;;;15.88;4.75;;;4.70;99.90;;;;;;5064725;28;20487;-73
2021/12/03 02:23:22;;;;;;;15.43;4.90;;;4.70;99.90;;;;;;5068451;28;20413;-70
2021/12/03 02:25:48;;;;;;;16.45;4.80;;;4.80;99.90;;;;;;5064631;28;20871;-70
2021/12/03 02:28:15;;;;;;;15.23;5.07;;;4.80;99.90;;;;;;5063147;28;21042;-71
2021/12/03 02:30:43;;;;;;;17.00;4.50;;;4.90;99.90;;;;;;5065135;28;20415;-71
2021/12/03 02:33:09;;;;;;;16.75;4.70;;;4.90;99.90;;;;;;5063466;28;20411;-71
2021/12/03 02:35:38;;;;;;;18.10;4.70;;;4.80;99.90;;;;;;5064179;28;20430;-70
2021/12/03 02:38:03;;;;;;;14.05;4.97;;;4.80;99.90;;;;;;5063347;28;20976;-71
2021/12/03 02:40:29;;;;;;;14.40;4.43;;;4.80;99.90;;;;;;5064300;28;20427;-71
2021/12/03 02:42:54;;;;;;;11.50;4.13;;;4.80;99.90;;;;;;5068580;28;20443;-71
2021/12/03 02:45:20;;;;;;;12.63;3.90;;;4.80;99.90;;;;;;5065250;28;21100;-70
2021/12/03 02:47:46;;;;;;;17.20;4.60;;;4.80;99.90;;;;;;5067617;28;20414;-70
2021/12/03 02:50:14;;;;;;;15.35;4.70;;;4.80;99.90;;;;;;5067966;28;20419;-69
2021/12/03 02:52:44;;;;;;;17.25;4.40;;;4.80;99.90;;;;;;5067270;28;20411;-71
2021/12/03 02:55:11;;;;;;;16.00;4.00;;;4.80;99.90;;;;;;5068837;28;20494;-71
2021/12/03 02:57:37;;;;;;;13.68;4.32;;;4.80;99.90;;;;;;5050299;28;20411;-73
2021/12/03 03:00:08;;;;;;;14.77;4.10;;;4.80;99.90;;;;;;5068096;28;20469;-71
2021/12/03 03:02:34;;;;;;;12.75;4.20;;;4.80;99.90;;;;;;5065856;28;20413;-72
2021/12/03 03:05:00;;;;;;;16.80;4.23;;;4.80;99.90;;;;;;5063509;28;20761;-71
2021/12/03 03:07:25;;;;;;;13.02;4.32;;;4.80;99.90;;;;;;5067037;28;20419;-72
2021/12/03 03:09:51;;;;;;;16.53;4.20;;;4.80;99.90;;;;;;5068877;28;20415;-70
2021/12/03 03:12:17;;;;;;;15.38;4.22;;;4.80;99.90;;;;;;5065881;28;20419;-71
2021/12/03 03:14:50;;;;;;;13.40;4.30;;;4.80;99.90;;;;;;5069284;28;20418;-71
2021/12/03 03:17:16;;;;;;;14.40;3.90;;;4.80;99.90;;;;;;5066127;28;20497;-70
2021/12/03 03:19:42;;;;;;;15.38;4.32;;;4.90;99.90;;;;;;5069031;28;20493;-70
2021/12/03 03:22:07;;;;;;;14.55;4.10;;;4.90;99.90;;;;;;5065858;28;20419;-70
2021/12/03 03:24:33;;;;;;;12.32;4.15;;;4.90;99.90;;;;;;5068927;28;20932;-72
2021/12/03 03:26:59;;;;;;;13.77;4.57;;;4.90;99.90;;;;;;5068751;28;20427;-70
2021/12/03 03:29:25;;;;;;;13.10;4.40;;;4.90;99.90;;;;;;5078671;28;20907;-72
2021/12/03 03:31:52;;;;;;;15.63;4.47;;;5.00;99.90;;;;;;5049172;28;20415;-71
2021/12/03 03:34:17;;;;;;;14.52;4.57;;;5.00;99.90;;;;;;5069085;28;20537;-71
2021/12/03 03:36:43;;;;;;;15.85;4.18;;;5.00;99.90;;;;;;5066907;28;20549;-71
2021/12/03 03:39:11;;;;;;;11.07;4.33;;;5.00;99.90;;;;;;5068732;28;20440;-70
2021/12/03 03:41:38;;;;;;;17.03;4.30;;;5.00;99.90;;;;;;5068347;28;20554;-73
2021/12/03 03:44:04;;;;;;;16.13;4.75;;;5.00;99.90;;;;;;5066217;28;20426;-70
2021/12/03 03:46:30;;;;;;;16.75;4.10;;;5.10;99.90;;;;;;5066685;28;20493;-70
2021/12/03 03:48:56;;;;;;;14.05;4.20;;;5.10;99.90;;;;;;5066576;28;20421;-72
2021/12/03 03:51:22;;;;;;;14.73;4.10;;;5.10;99.90;;;;;;5066305;28;20561;-70
2021/12/03 03:53:48;;;;;;;14.82;4.00;;;5.10;99.90;;;;;;5067236;28;20408;-71
2021/12/03 03:56:13;;;;;;;18.00;4.20;;;5.20;99.90;;;;;;5067600;28;20442;-71
2021/12/03 03:58:41;;;;;;;15.07;4.50;;;5.20;99.90;;;;;;5068973;28;20415;-72
2021/12/03 04:01:08;;;;;;;12.60;4.30;;;5.20;99.90;;;;;;5066462;28;20434;-70
2021/12/03 04:03:34;;;;;;;13.85;4.78;;;5.20;99.90;;;;;;5067874;28;20411;-71
2021/12/03 04:06:00;;;;;;;14.00;4.88;;;5.20;99.90;;;;;;5068488;28;20415;-71
2021/12/03 04:08:29;;;;;;;13.00;4.70;;;5.20;99.90;;;;;;5071336;28;20898;-70
2021/12/03 04:10:59;;;;;;;13.85;4.47;;;5.20;99.90;;;;;;5069019;28;20427;-70
2021/12/03 04:13:26;;;;;;;15.05;4.80;;;5.20;99.90;;;;;;5066859;28;20435;-70
2021/12/03 04:15:53;;;;;;;16.80;4.90;;;5.20;99.90;;;;;;5067730;28;20415;-70
2021/12/03 04:18:19;;;;;;;16.95;5.00;;;5.30;99.90;;;;;;5064816;28;20422;-71
2021/12/03 04:20:44;;;;;;;13.57;4.72;;;5.30;99.90;;;;;;5065202;28;20443;-71
2021/12/03 04:23:15;;;;;;;15.90;4.77;;;5.30;99.90;;;;;;5067683;28;20520;-72
2021/12/03 04:25:40;;;;;;;16.70;4.97;;;5.30;99.90;;;;;;5066376;28;20418;-72
2021/12/03 04:28:06;;;;;;;13.10;4.30;;;5.30;99.90;;;;;;5067808;28;20475;-71
2021/12/03 04:30:31;;;;;;;13.97;3.83;;;5.30;99.90;;;;;;5067088;28;20435;-72
2021/12/03 04:32:59;;;;;;;12.27;3.67;;;5.40;99.90;;;;;;5066899;28;20426;-71
2021/12/03 04:35:25;;;;;;;9.85;3.25;;;5.40;99.90;;;;;;5068072;28;20510;-69
2021/12/03 04:37:52;;;;;;;17.73;3.83;;;5.40;99.90;;;;;;5066032;28;20435;-69
2021/12/03 04:40:19;;;;;;;13.48;4.00;;;5.50;99.90;;;;;;5062982;28;20425;-69
2021/12/03 04:42:46;;;;;;;13.77;3.60;;;5.50;99.90;;;;;;5059808;28;20411;-70
2021/12/03 04:45:14;;;;;;;15.93;3.88;;;5.60;99.90;;;;;;5058019;28;20420;-71
2021/12/03 04:47:40;;;;;;;11.00;3.65;;;5.60;99.90;;;;;;5046584;28;20457;-70
2021/12/03 04:50:10;;;;;;;15.37;3.00;;;5.60;99.90;;;;;;5044652;28;20919;-71
2021/12/03 04:52:36;;;;;;;12.17;2.53;;;5.60;99.90;;;;;;5056456;28;20462;-68
2021/12/03 04:55:03;;;;;;;15.10;2.80;;;5.70;99.90;;;;;;5063471;28;20443;-69
2021/12/03 04:57:28;;;;;;;12.82;2.17;;;5.70;99.90;;;;;;5042737;28;20438;-71
2021/12/03 04:59:54;;;;;;;16.13;2.73;;;5.80;99.90;;;;;;5061802;28;20413;-68
2021/12/03 05:02:21;;;;;;;11.73;2.40;;;5.80;99.90;;;;;;5060390;28;20419;-70
2021/12/03 05:04:48;;;;;;;14.65;2.90;;;5.90;99.90;;;;;;5065552;28;20973;-69
2021/12/03 05:09:55;;;;;;;16.08;2.90;;;6.00;99.90;;;;;;5063467;28;20420;-71
2021/12/03 05:12:21;;;;;;;14.38;3.00;;;6.00;99.90;;;;;;5058572;28;20419;-72
2021/12/03 05:14:46;;;;;;;15.07;2.80;;;6.10;99.90;;;;;;5037963;28;20417;-71
2021/12/03 05:17:12;;;;;;;12.60;2.33;;;6.10;99.90;;;;;;5056481;28;20411;-71
2021/12/03 05:19:38;;;;;;;9.52;1.83;;;6.10;99.90;;;;;;5064914;28;20411;-69
2021/12/03 05:22:04;;;;;;;14.23;1.80;;;6.20;99.90;;;;;;5056317;28;20439;-69
2021/12/03 05:24:29;;;;;;;16.13;2.15;;;6.20;99.90;;;;;;5062866;28;20469;-71
2021/12/03 05:26:55;;;;;;;11.15;1.92;;;6.30;99.90;;;;;;5059874;28;20425;-73
2021/12/03 05:29:22;;;;;;;12.43;1.90;;;6.40;99.90;;;;;;5044527;28;20916;-73
2021/12/03 05:31:48;;;;;;;11.38;1.60;;;6.40;99.90;;;;;;5043755;28;20520;-70
2021/12/03 05:34:15;;;;;;;14.20;1.98;;;6.50;99.90;;;;;;5059232;28;20475;-70
2021/12/03 05:36:42;;;;;;;11.60;1.90;;;6.60;99.90;;;;;;5057009;28;20504;-71
2021/12/03 05:39:07;;;;;;;9.23;1.95;;;6.60;99.90;;;;;;5059291;28;20760;-72
2021/12/03 05:41:35;;;;;;;12.02;1.83;;;6.70;99.90;;;;;;5044352;28;20425;-71
2021/12/03 05:44:02;;;;;;;8.35;1.80;;;6.70;99.90;;;;;;5063773;28;20439;-70
2021/12/03 05:46:28;;;;;;;9.75;1.80;;;6.70;99.90;;;;;;5058728;28;20419;-71
2021/12/03 05:48:53;;;;;;;8.27;1.55;;;6.80;99.90;;;;;;5059939;28;20424;-70
2021/12/03 05:51:19;;;;;;;9.35;2.00;;;6.80;99.80;;;;;;5056909;28;20568;-72
2021/12/03 05:53:44;;;;;;;10.87;1.67;;;6.80;99.60;;;;;;5075641;28;20419;-72
2021/12/03 05:56:10;;;;;;;10.07;1.83;;;6.90;99.60;;;;;;5059776;28;20415;-72
2021/12/03 05:58:36;;;;;;;11.00;1.90;;;6.90;99.60;;;;;;5062474;28;20415;-72
2021/12/03 06:01:02;;;;;;;13.32;2.00;;;6.90;99.40;;;;;;5046355;28;20420;-74
2021/12/03 06:03:27;;;;;;;11.38;2.17;;;6.90;99.30;;;;;;5055264;28;20569;-73
2021/12/03 06:05:53;;;;;;;9.33;1.80;;;7.00;99.40;;;;;;5060246;28;20423;-72
2021/12/03 06:08:19;;;;;;;11.05;1.75;;;7.00;99.40;;;;;;5051640;28;20416;-71
2021/12/03 06:10:44;;;;;;;13.83;1.90;;;7.00;99.50;;;;;;5064209;28;20403;-73
2021/12/03 06:13:10;;;;;;;9.98;1.75;;;7.00;99.20;;;;;;5064269;28;20407;-71
2021/12/03 06:15:36;;;;;;;13.23;1.70;;;7.00;99.00;;;;;;5066089;28;20431;-72
2021/12/03 06:18:02;;;;;;;12.32;1.90;;;7.00;98.60;;;;;;5068260;28;20956;-71
2021/12/03 06:20:28;;;;;;;10.48;1.88;;;7.00;98.10;;;;;;5059474;28;20436;-74
2021/12/03 06:22:54;;;;;;;11.00;1.80;;;7.00;97.60;;;;;;5064064;28;20519;-71
2021/12/03 06:25:21;;;;;;;14.43;2.00;;;7.00;97.40;;;;;;5064379;28;20413;-72
2021/12/03 06:27:47;;;;;;;12.73;1.80;;;7.00;97.30;;;;;;5064424;28;20810;-71
2021/12/03 06:30:16;;;;;;;9.40;1.70;;;7.10;97.20;;;;;;5061203;28;20423;-74
2021/12/03 06:32:42;;;;;;;10.48;2.00;;;7.10;97.20;;;;;;5069395;28;20461;-71
2021/12/03 06:35:11;;;;;;;13.93;2.08;;;7.10;97.70;;;;;;5048369;28;20410;-73
2021/12/03 06:37:37;;;;;;;12.45;2.28;;;7.10;98.00;;;;;;5046896;28;20519;-73
2021/12/03 06:40:06;;;;;;;11.25;2.05;;;7.10;98.30;;;;;;5066435;28;20421;-72
2021/12/03 06:42:32;;;;;;;12.07;2.00;;;7.10;98.80;;;;;;5067515;28;20506;-72
2021/12/03 06:44:58;;;;;;;10.27;2.07;;;7.10;98.60;;;;;;5043296;28;20494;-71
2021/12/03 06:47:24;;;;;;;14.98;2.42;;;7.00;98.60;;;;;;5067484;28;20811;-70
2021/12/03 06:49:49;;;;;;;11.93;2.30;;;7.10;98.30;;;;;;5067563;28;20400;-72
2021/12/03 06:52:16;;;;;;;10.50;1.98;;;7.00;97.70;;;;;;5047533;28;20411;-74
2021/12/03 06:54:43;;;;;;;16.10;2.53;;;7.10;97.00;;;;;;5062625;28;20415;-72
2021/12/03 06:57:10;;;;;;;10.70;2.28;;;7.10;96.10;;;;;;5065820;28;20760;-70
2021/12/03 06:59:37;;;;;;;9.35;2.17;;;7.10;95.30;;;;;;5066305;28;20767;-71
2021/12/03 07:02:03;;;;;;;14.20;2.17;;;7.20;95.40;;;;;;5067823;28;20392;-70
2021/12/03 07:04:29;;;;;;;11.10;2.20;;;7.20;95.20;;;;;;5059607;28;20511;-73
2021/12/03 07:06:55;;;;;;;14.15;2.50;;;7.20;94.90;;;;;;5046408;28;20971;-71
2021/12/03 07:09:20;;;;;;;13.20;2.40;;;7.30;95.00;;;;;;5064379;28;20407;-71
2021/12/03 07:11:46;;;;;;;12.60;2.72;;;7.30;95.30;;;;;;5049270;28;20429;-70
2021/12/03 07:14:12;;;;;;;13.63;2.60;;;7.30;95.30;;;;;;5065813;28;20408;-72
2021/12/03 07:16:38;;;;;;;14.15;2.90;;;7.30;95.30;;;;;;5062628;28;20549;-70
2021/12/03 07:19:04;;;;;;;15.85;2.80;;;7.30;95.50;;;;;;5065397;28;20446;-71
2021/12/03 07:21:30;;;;;;;16.00;3.00;;;7.30;95.90;;;;;;5047433;28;20446;-72
2021/12/03 07:23:56;;;;;;;15.98;3.30;;;7.30;95.90;;;;;;5048855;28;20446;-70
2021/12/03 07:26:23;;;;;;;13.97;2.87;;;7.30;95.90;;;;;;5066279;28;20486;-73
2021/12/03 07:28:50;;;;;;;16.23;2.80;;;7.40;95.80;;;;;;5078490;28;20767;-71
2021/12/03 07:31:15;;;;;;;13.27;2.70;;;7.40;95.80;;;;;;5067344;28;20411;-71
2021/12/03 07:33:41;;;;;;;9.10;2.00;;;7.40;95.00;;;;;;5067544;28;20407;-71
2021/12/03 07:36:07;;;;;;;11.32;2.15;;;7.40;93.90;;;;;;5045686;28;20456;-70
2021/12/03 07:38:35;;;;;;;14.20;2.20;;;7.40;93.30;;;;;;5049599;28;20435;-70
2021/12/03 07:41:01;;;;;;;13.02;2.15;;;7.40;92.90;;;;;;5066495;28;20419;-73
2021/12/03 07:43:27;;;;;;;9.87;2.03;;;7.40;92.30;;;;;;5070009;28;20761;-70
2021/12/03 07:45:53;;;;;;;9.73;2.10;;;7.40;91.10;;;;;;5072393;28;20498;-70
2021/12/03 07:48:21;;;;;;;10.60;2.08;;;7.40;90.30;;;;;;5069914;28;21000;-71
2021/12/03 07:50:47;;;;;;;11.63;2.20;;;7.50;90.20;;;;;;5081544;28;20419;-72
2021/12/03 07:53:16;;;;;;;10.00;2.05;;;7.50;90.20;;;;;;5067972;28;20407;-70
2021/12/03 07:55:42;;;;;;;10.47;2.07;;;7.40;90.00;;;;;;5065016;28;20445;-69
2021/12/03 07:58:08;;;;;;;10.50;1.80;;;7.40;89.40;;;;;;5066629;28;20411;-70
2021/12/03 08:00:34;;;;;;;9.93;1.60;;;7.50;89.10;;;;;;5067290;28;20560;-71
2021/12/03 08:03:00;;;;;;;10.38;2.28;;;7.50;89.00;;;;;;5067559;28;21026;-70
2021/12/03 08:05:25;;;;;;;13.57;1.87;;;7.50;88.50;;;;;;5069646;28;20415;-70
2021/12/03 08:07:51;;;;;;;11.38;1.70;;;7.50;89.40;;;;;;5067696;28;20468;-73
2021/12/03 08:10:17;;;;;;;10.40;1.90;;;7.50;88.60;;;;;;5068250;28;20903;-71
2021/12/03 08:12:43;;;;;;;10.20;1.97;;;7.50;88.70;;;;;;5067862;28;20419;-70
2021/12/03 08:15:10;;;;;;;10.07;1.77;;;7.60;89.30;;;;;;5068257;28;20473;-69
2021/12/03 08:17:36;;;;;;;13.00;1.83;;;7.60;89.60;;;;;;5064342;28;20497;-70
2021/12/03 08:20:04;;;;;;;11.80;2.20;;;7.60;89.60;;;;;;5071369;28;20427;-70
2021/12/03 08:22:30;;;;;;;17.73;3.87;;;7.60;90.00;;;;;;5063351;28;20399;-68
2021/12/03 08:24:55;;;;;;;17.60;4.43;;;7.60;92.90;;;;;;5068963;28;20957;-71
2021/12/03 08:27:21;;;;;;;24.30;5.18;;;7.50;94.70;;;;;;5067101;28;20496;-71
2021/12/03 08:29:47;;;;;;;19.20;4.47;;;7.40;95.60;;;;;;5064948;28;20415;-72
2021/12/03 08:32:13;;;;;;;16.83;4.30;;;7.30;96.20;;;;;;5067481;28;20453;-71
2021/12/03 08:34:39;;;;;;;17.90;5.18;;;7.20;96.50;;;;;;5069089;28;20414;-69
2021/12/03 08:37:07;;;;;;;21.92;5.10;;;7.10;96.90;;;;;;5068315;28;20455;-72
2021/12/03 08:39:32;;;;;;;15.43;5.05;;;7.00;97.10;;;;;;5067191;28;20797;-71
2021/12/03 08:41:58;;;;;;;17.25;5.47;;;6.90;97.60;;;;;;5065437;28;20447;-70
2021/12/03 08:44:24;;;;;;;18.87;5.10;;;6.80;97.80;;;;;;5066567;28;20868;-70
2021/12/03 08:46:57;;;;;;;16.77;4.90;;;6.80;98.10;;;;;;5067562;28;20913;-69
2021/12/03 08:49:29;;;;;;;16.02;5.20;;;6.80;98.30;;;;;;5071315;28;20480;-69
2021/12/03 08:57:12;;;;;;;12.65;4.00;;;6.70;98.60;;;;;;5067309;28;20820;-72
2021/12/03 08:59:41;;;;;;;18.67;4.82;;;6.70;98.60;;;;;;5066652;28;20406;-70
2021/12/03 09:02:07;;;;;;;15.05;4.40;;;6.80;98.70;;;;;;5063723;28;20416;-71
2021/12/03 09:04:33;;;;;;;14.03;4.73;;;6.80;98.90;;;;;;5068198;28;20395;-72
2021/12/03 09:07:00;;;;;;;18.50;4.60;;;6.80;99.00;;;;;;5066617;28;20404;-72
2021/12/03 09:09:26;;;;;;;16.05;4.60;;;6.70;99.30;;;;;;5068186;28;20411;-71
2021/12/03 09:11:53;;;;;;;16.45;4.43;;;6.60;99.80;;;;;;5065862;28;20412;-69
2021/12/03 09:14:28;;;;;;;17.52;4.90;;;6.60;99.90;;;;;;5068623;28;20917;-73
2021/12/03 09:17:04;;;;;;;14.15;4.57;;;6.60;99.90;;;;;;5066800;28;20914;-71
2021/12/03 09:19:50;;;;;;;17.90;4.63;;;6.50;99.90;;;;;;5072578;28;20393;-72
2021/12/03 09:22:59;;;;;;;16.42;4.60;;;6.50;99.90;;;;;;5064001;28;20395;-71
2021/12/03 09:25:08;;;;;;;14.40;4.53;;;6.50;99.90;;;;;;5063902;28;20408;-72
2021/12/03 09:27:35;;;;;;;18.10;4.80;;;6.40;99.90;;;;;;5066140;28;20403;-72
2021/12/03 09:30:02;;;;;;;14.27;4.45;;;6.40;99.90;;;;;;5067751;28;20482;-71
2021/12/03 09:32:31;;;;;;;17.83;4.40;;;6.40;99.90;;;;;;5066076;28;20415;-71
2021/12/03 09:34:57;;;;;;;19.83;4.43;;;6.40;99.90;;;;;;5067882;28;20463;-70
2021/12/03 09:37:23;;;;;;;11.10;3.70;;;6.40;99.90;;;;;;5067039;28;20411;-71
2021/12/03 09:39:49;;;;;;;12.13;3.50;;;6.30;99.90;;;;;;5067391;28;20431;-72
2021/12/03 09:42:18;;;;;;;12.10;3.30;;;6.30;99.90;;;;;;5066322;28;20403;-73
2021/12/03 09:44:45;;;;;;;12.40;3.50;;;6.30;99.90;;;;;;5067930;28;20400;-69
2021/12/03 09:47:14;;;;;;;12.75;3.15;;;6.30;99.90;;;;;;5066406;28;20415;-70
2021/12/03 09:49:41;;;;;;;13.38;3.63;;;6.20;99.90;;;;;;5063763;28;20415;-72
2021/12/03 09:54:41;;;;;;;11.23;3.23;;;6.20;99.90;;;;;;5067869;28;20415;-71
2021/12/03 09:57:12;;;;;;;13.05;3.55;;;6.30;99.90;;;;;;5068803;28;20814;-71
2021/12/03 10:02:45;;;;;;;14.35;3.45;;;6.40;99.90;;;;;;5066388;28;20419;-72
2021/12/03 10:13:32;;;;;;;10.80;3.07;;;6.70;99.90;;;;;;5065404;28;20411;-73
2021/12/03 10:16:25;;;;;;;9.07;2.73;;;6.80;99.90;;;;;;5067331;28;20742;-70
2021/12/03 10:24:36;;;;;;;13.38;2.95;;;6.90;99.90;;;;;;5065487;28;20809;-71
2021/12/03 10:30:22;;;;;;;10.18;2.90;;;6.70;99.90;;;;;;5067562;28;20494;-71
2021/12/03 10:38:24;;;;;;;11.93;3.65;;;6.70;99.90;;;;;;5065496;28;20415;-72
2021/12/03 10:41:09;;;;;;;17.40;3.65;;;6.70;99.90;;;;;;5066312;28;20438;-69
2021/12/03 10:54:31;;;;;;;13.15;4.25;;;6.50;99.90;;;;;;5071877;28;20485;-70
2021/12/03 10:57:11;;;;;;;11.90;4.32;;;6.50;99.90;;;;;;5065948;28;20423;-70
2021/12/03 11:05:26;;;;;;;19.33;5.15;;;6.40;99.90;;;;;;5067450;28;20484;-69
2021/12/03 11:56:12;;;;;;;10.00;3.80;;;6.90;99.90;;;;;;5068178;28;20900;-71
2021/12/03 12:19:03;;;;;;;10.20;3.40;;;7.00;99.90;;;;;;5066573;28;20411;-72
2021/12/03 12:28:10;;;;;;;10.37;3.90;;;7.10;99.90;;;;;;5066550;28;20411;-73
2021/12/03 14:35:09;;;;;;;14.90;11.00;;;7.00;99.90;;;;;;5055401;28;21142;-72
2021/12/03 14:36:59;;;;;;;13.18;10.73;;;7.00;99.90;;;;;;5055910;28;20412;-73
2021/12/03 14:39:56;;;;;;;15.00;11.98;;;6.90;99.90;;;;;;5060893;28;20465;-72
2021/12/03 14:45:03;;;;;;;16.15;13.02;;;6.80;99.90;;;;;;5068351;28;20415;-73
2021/12/03 14:50:27;;;;;;;18.27;14.30;;;6.80;99.90;;;;;;5070986;28;20419;-72
2021/12/03 14:53:13;;;;;;;;;;;;;;;;;;;;;
2021/12/03 14:55:27;;;;;;;17.33;14.65;;;6.70;99.90;;;;;;5077497;28;20403;-69
2021/12/03 14:58:01;;;;;;;22.15;15.55;;;6.70;99.90;;;;;;5068812;28;20414;-71
2021/12/03 15:03:07;;;;;;;20.23;16.42;;;6.70;99.90;;;;;;5071193;28;20434;-72
2021/12/03 15:05:51;;;;;;;18.80;16.80;;;6.70;99.90;;;;;;5071401;28;20431;-71
2021/12/03 15:08:24;;;;;;;21.80;17.50;;;6.70;99.90;;;;;;5073543;28;20907;-76
2021/12/03 15:17:18;;;;;;;19.10;16.33;;;6.60;99.90;;;;;;5068725;28;20403;-71
2021/12/03 15:30:02;;;;;;;19.38;16.63;;;6.70;99.90;;;;;;5075512;28;20486;-73
2021/12/03 16:04:22;;;;;;;24.73;21.37;;;6.80;99.90;;;;;;5068156;28;20767;-73
2021/12/03 16:07:00;;;;;;;24.23;21.60;;;6.80;99.90;;;;;;5068212;28;20734;-73
2021/12/03 16:09:45;;;;;;;25.90;21.83;;;6.80;99.90;;;;;;5073127;28;20505;-75
2021/12/03 16:49:27;;;;;;;29.83;26.13;;;6.80;99.90;;;;;;5064046;28;20407;-71
2021/12/03 16:51:31;;;;;;;32.60;25.88;;;6.80;99.90;;;;;;5063695;28;20427;-73
2021/12/03 16:54:05;;;;;;;29.98;26.60;;;6.80;99.90;;;;;;5067980;28;20467;-74
2021/12/03 16:56:32;;;;;;;30.63;26.35;;;6.80;99.90;;;;;;5066838;28;22752;-72
2021/12/03 16:58:59;;;;;;;32.85;25.88;;;6.80;99.90;;;;;;5059876;28;20422;-70
2021/12/03 17:01:49;;;;;;;29.67;26.20;;;6.90;99.90;;;;;;5064547;28;20415;-71
2021/12/03 17:04:33;;;;;;;31.15;26.80;;;6.90;99.90;;;;;;5064541;28;20734;-71
2021/12/03 17:30:37;;;;;;;32.23;26.60;;;7.00;99.90;;;;;;5068975;28;20407;-74
2021/12/03 17:49:17;;;;;;;30.37;26.73;;;7.10;99.90;;;;;;5064352;28;20493;-71
2021/12/03 17:54:25;;;;;;;29.83;25.93;;;7.10;99.90;;;;;;5064882;28;20415;-71
2021/12/03 17:56:53;;;;;;;29.67;26.45;;;7.00;99.90;;;;;;5036892;28;20421;-72
2021/12/03 17:59:22;;;;;;;31.65;26.90;;;7.00;99.90;;;;;;5062129;28;20427;-75
2021/12/03 18:04:40;;;;;;;30.98;27.40;;;7.10;99.90;;;;;;5059682;28;20443;-70
2021/12/03 18:07:22;;;;;;;33.97;28.65;;;7.10;99.90;;;;;;5062964;28;20396;-73
2021/12/03 18:12:46;;;;;;;33.38;29.25;;;7.10;99.90;;;;;;5061843;28;20399;-71
2021/12/03 18:15:44;;;;;;;35.95;29.98;;;7.10;99.90;;;;;;5046241;28;20891;-73
2021/12/03 18:55:45;;;;;;;38.60;29.73;;;7.10;99.90;;;;;;5066756;28;20433;-72
2021/12/03 18:58:11;;;;;;;34.28;29.25;;;7.10;99.90;;;;;;5037840;28;20403;-72
2021/12/03 19:00:43;;;;;;;35.20;29.13;;;7.10;99.90;;;;;;5060270;28;20413;-71
2021/12/03 19:08:14;;;;;;;36.30;29.17;;;7.10;99.90;;;;;;5066118;28;20764;-71
2021/12/03 19:10:50;;;;;;;33.88;27.55;;;7.10;99.90;;;;;;5060198;28;20813;-71
2021/12/03 19:13:23;;;;;;;34.85;27.55;;;7.10;99.90;;;;;;5046093;28;20419;-72
2021/12/03 19:15:50;;;;;;;33.92;27.95;;;7.10;99.90;;;;;;5061577;28;20729;-71
2021/12/03 19:18:19;;;;;;;32.63;27.95;;;7.10;99.90;;;;;;5061970;28;20919;-70
2021/12/03 19:20:44;;;;;;;31.50;27.58;;;7.10;99.90;;;;;;5063495;28;20487;-70
2021/12/03 19:23:10;;;;;;;35.33;29.10;;;7.10;99.90;;;;;;5063343;28;20407;-70
2021/12/03 19:25:37;;;;;;;35.70;29.27;;;7.10;99.90;;;;;;5056971;28;20772;-71
2021/12/03 19:28:03;;;;;;;36.87;30.30;;;7.10;99.90;;;;;;5059536;28;20413;-71
2021/12/03 19:30:29;;;;;;;35.47;30.10;;;7.10;99.90;;;;;;5042597;28;20411;-72
2021/12/03 19:32:55;;;;;;;36.30;29.90;;;7.10;99.90;;;;;;5044262;28;20487;-72
2021/12/03 19:35:20;;;;;;;36.40;30.07;;;7.10;99.90;;;;;;5061736;28;20425;-71
2021/12/03 19:37:50;;;;;;;34.95;29.65;;;7.10;99.90;;;;;;5039060;28;20960;-71
2021/12/03 19:40:24;;;;;;;33.67;28.23;;;7.20;99.90;;;;;;5068228;28;20420;-71
2021/12/03 19:43:14;;;;;;;31.90;27.70;;;7.20;99.90;;;;;;5049828;28;20427;-71
2021/12/03 19:45:49;;;;;;;33.33;28.20;;;7.20;99.90;;;;;;5063058;28;20417;-71
2021/12/03 19:48:15;;;;;;;30.07;26.17;;;7.20;99.90;;;;;;5052298;28;20422;-71
2021/12/03 19:50:45;;;;;;;31.88;26.60;;;7.20;99.90;;;;;;5045963;28;20403;-72
2021/12/03 19:53:27;;;;;;;30.30;25.88;;;7.20;99.90;;;;;;5052914;28;20426;-71
2021/12/03 19:55:53;;;;;;;29.95;25.05;;;7.20;99.90;;;;;;5069665;28;21474;-73
2021/12/03 19:58:20;;;;;;;28.50;24.98;;;7.20;99.90;;;;;;5054072;28;20413;-72
2021/12/03 20:00:47;;;;;;;27.65;23.70;;;7.20;99.90;;;;;;5059842;28;21050;-71
2021/12/03 20:03:14;;;;;;;27.55;23.75;;;7.20;99.90;;;;;;5061583;28;20867;-70
2021/12/03 20:05:40;;;;;;;27.42;23.52;;;7.20;99.90;;;;;;5065535;28;20407;-71
2021/12/03 20:08:07;;;;;;;27.15;23.75;;;7.20;99.90;;;;;;5062353;28;20407;-72